Terminal Aerodrome Forecast
Issued by NWS

Home | Current Version | Previous Version | Graphics & Text | Print | Product List | Glossary Off
Versions: 1 2 3 4 5 6 7 8 9 10 11 12 13

019
FTUS45 KGGW 101720 AAB
TAFSDY
TAF AMD
KSDY 101720Z 1017/1118 34013KT P6SM BKN015
     FM110000 36007KT P6SM BKN015
     FM110600 VRB03KT P6SM OVC015
     FM111200 08004KT P6SM VCSH OVC008
      AMD LTD TO CLD VIS AND WIND=

USA.gov is the U.S. government's official web portal to all federal, state and local government web resources and services.